Weather at Avenger Field

Public forecast

Using degrees Fahrenheit for public forecast. Weather courtesy of forecast.io.

Current aviation weather report (METAR) for Avenger Field

Retrieved 2020/09/22 15:35 UTC (18 minutes ago):

KSWW 221535Z AUTO 34008KT 10SM BKN004 OVC046 18/18 A3018 RMK AO2 T01770177

Closest aviation forecast (TAF) to Avenger Field

Closest forecast is Dyess Air Force Base, 31.2 nm (57.7 km) E. Retrieved 2020/09/22 16:09 UTC (0 seconds ago):

TAF KDYS 221600Z 2216/2322 VRB06KT 4800 BR BKN004 QNH3010INS TEMPO 2217/2218 BKN005 BECMG 2217/2218 VRB06KT 6000 BR BKN006 QNH3003INS BECMG 2219/2220 VRB06KT 6000 BR BKN007 QNH2999INS BECMG 2222/2223 VRB06KT 9999 NSW BKN010 QNH2999INS BECMG 2305/2306 VRB06KT 6000 BR BKN005 QNH2998INS BECMG 2315/2316 VRB06KT 9999 NSW BKN010 QNH2994INS TX24/2222Z TN18/2312Z